createdAt,value
2018-01-01T00:00:59.312Z,5.90
2018-01-01T00:01:59.332Z,5.70
2018-01-01T00:02:59.349Z,6.20
2018-01-01T00:03:59.369Z,6.40
2018-01-01T00:04:59.386Z,6.70
2018-01-01T00:05:59.439Z,7.00
2018-01-01T00:06:59.421Z,7.30
2018-01-01T00:07:59.439Z,7.20
2018-01-01T00:08:59.456Z,7.90
2018-01-01T00:09:59.475Z,7.90
2018-01-01T00:10:59.493Z,8.60
2018-01-01T00:11:59.510Z,8.70
2018-01-01T00:12:59.528Z,9.70
2018-01-01T00:13:59.544Z,9.00
2018-01-01T00:14:59.561Z,10.20
2018-01-01T00:15:59.582Z,10.80
2018-01-01T00:16:59.597Z,11.70
2018-01-01T00:17:59.616Z,13.90
2018-01-01T00:18:59.634Z,15.20
2018-01-01T00:19:59.653Z,15.80
2018-01-01T00:20:59.670Z,16.90
2018-01-01T00:21:59.692Z,17.00
2018-01-01T00:22:59.705Z,17.30
2018-01-01T00:23:59.724Z,17.40
2018-01-01T00:24:59.742Z,17.40
2018-01-01T00:25:59.762Z,17.80
2018-01-01T00:26:59.774Z,17.30
2018-01-01T00:27:59.788Z,17.40
2018-01-01T00:28:59.810Z,18.40
2018-01-01T00:29:59.831Z,17.40
2018-01-01T00:30:59.843Z,18.00
2018-01-01T00:31:59.865Z,17.60
2018-01-01T00:32:59.882Z,17.80
2018-01-01T00:33:59.899Z,18.00
2018-01-01T00:34:59.916Z,16.30
2018-01-01T00:35:59.933Z,16.60
2018-01-01T00:36:59.946Z,16.00
2018-01-01T00:37:59.967Z,14.50
2018-01-01T00:38:59.985Z,14.60
2018-01-01T00:40:00.005Z,14.10
2018-01-01T00:41:00.029Z,13.10
2018-01-01T00:42:00.041Z,13.20
2018-01-01T00:43:00.052Z,12.70
2018-01-01T00:44:00.075Z,12.20
2018-01-01T00:45:00.095Z,10.60
2018-01-01T00:46:00.107Z,9.50
2018-01-01T00:47:00.120Z,8.50
2018-01-01T00:48:00.144Z,8.30
2018-01-01T00:49:00.162Z,7.70
2018-01-01T00:50:00.177Z,7.20
2018-01-01T00:51:00.196Z,6.20
2018-01-01T00:52:00.214Z,6.20
2018-01-01T00:53:00.231Z,5.70
2018-01-01T00:54:00.249Z,5.80
2018-01-01T00:55:00.265Z,5.00
2018-01-01T00:56:00.279Z,4.90
2018-01-01T00:57:00.300Z,3.90
2018-01-01T00:58:00.317Z,3.70
2018-01-01T00:59:00.336Z,3.70
2018-01-01T01:00:00.352Z,3.40
2018-01-01T01:01:00.371Z,3.90
2018-01-01T01:02:00.387Z,3.80
2018-01-01T01:03:00.404Z,3.90
2018-01-01T01:04:00.421Z,4.40
2018-01-01T01:05:00.440Z,4.00
2018-01-01T01:06:00.455Z,3.90
2018-01-01T01:07:00.473Z,3.60
2018-01-01T01:08:00.492Z,3.90
2018-01-01T01:09:00.508Z,3.90
2018-01-01T01:10:00.524Z,4.30
2018-01-01T01:11:00.541Z,3.90
2018-01-01T01:12:00.570Z,3.50
2018-01-01T01:13:00.577Z,3.70
2018-01-01T01:14:00.586Z,3.40
2018-01-01T01:15:00.609Z,3.90
2018-01-01T01:16:00.632Z,3.60
2018-01-01T01:17:00.646Z,3.30
2018-01-01T01:18:00.661Z,3.60
2018-01-01T01:19:00.679Z,3.70
2018-01-01T01:20:00.697Z,3.50
2018-01-01T01:21:00.714Z,3.60
2018-01-01T01:22:00.733Z,3.70
2018-01-01T01:23:00.742Z,3.50
2018-01-01T01:24:00.764Z,3.10
2018-01-01T01:25:00.782Z,3.80
2018-01-01T01:26:00.798Z,3.20
2018-01-01T01:27:00.816Z,2.90
2018-01-01T01:28:00.834Z,3.20
2018-01-01T01:29:00.857Z,3.20
2018-01-01T01:30:00.865Z,3.50
2018-01-01T01:31:00.883Z,2.60
2018-01-01T01:32:00.901Z,3.10
2018-01-01T01:33:00.918Z,3.00
2018-01-01T01:34:00.935Z,3.20
2018-01-01T01:35:00.952Z,2.90
2018-01-01T01:36:00.971Z,3.20
2018-01-01T01:37:00.986Z,2.90
2018-01-01T01:38:01.002Z,2.60
2018-01-01T01:39:01.023Z,2.70
2018-01-01T01:40:01.035Z,2.80
2018-01-01T01:41:01.054Z,2.90
2018-01-01T01:42:01.071Z,2.80
2018-01-01T01:43:01.088Z,2.60
2018-01-01T01:44:01.105Z,2.80
2018-01-01T01:45:01.124Z,2.40
2018-01-01T01:46:01.138Z,2.70
2018-01-01T01:47:01.156Z,3.00
2018-01-01T01:48:01.172Z,2.70
2018-01-01T01:49:01.190Z,2.60
2018-01-01T01:50:01.207Z,2.70
2018-01-01T01:51:01.223Z,2.50
2018-01-01T01:52:01.242Z,2.50
2018-01-01T01:53:01.260Z,2.30
2018-01-01T01:54:01.280Z,2.90
2018-01-01T01:55:01.292Z,2.70
2018-01-01T01:56:01.308Z,2.90
2018-01-01T01:57:01.327Z,2.80
2018-01-01T01:58:01.343Z,3.00
2018-01-01T01:59:01.360Z,2.70
2018-01-01T02:00:01.380Z,2.70
2018-01-01T02:01:01.394Z,2.60
2018-01-01T02:02:01.409Z,2.70
2018-01-01T02:03:01.422Z,2.70
2018-01-01T02:04:01.443Z,2.70
2018-01-01T02:05:01.463Z,2.80
2018-01-01T02:06:01.478Z,2.90
2018-01-01T02:07:01.494Z,3.10
2018-01-01T02:08:01.514Z,2.50
2018-01-01T02:09:01.528Z,2.80
2018-01-01T02:10:01.546Z,2.70
2018-01-01T02:11:01.563Z,2.70
2018-01-01T02:12:01.578Z,2.40
2018-01-01T02:13:01.599Z,2.70
2018-01-01T02:14:01.613Z,2.10
2018-01-01T02:15:01.632Z,2.60
2018-01-01T02:16:01.649Z,3.00
2018-01-01T02:17:01.665Z,2.60
2018-01-01T02:18:01.685Z,2.50
2018-01-01T02:19:01.698Z,2.40
2018-01-01T02:20:01.715Z,2.60
2018-01-01T02:21:01.737Z,2.40
2018-01-01T02:22:01.747Z,2.40
2018-01-01T02:23:01.766Z,2.60
2018-01-01T02:24:01.783Z,2.50
2018-01-01T02:25:01.801Z,2.70
2018-01-01T02:26:01.817Z,2.40
2018-01-01T02:27:01.834Z,2.30
2018-01-01T02:28:01.851Z,3.20
2018-01-01T02:29:01.874Z,2.60
2018-01-01T02:30:01.887Z,2.60
2018-01-01T02:31:01.903Z,2.70
2018-01-01T02:32:01.919Z,3.10
2018-01-01T02:33:01.936Z,2.60
2018-01-01T02:34:01.950Z,2.40
2018-01-01T02:35:01.969Z,2.80
2018-01-01T02:36:01.989Z,2.70
2018-01-01T02:37:02.004Z,2.40
2018-01-01T02:38:02.020Z,2.50
2018-01-01T02:39:02.033Z,2.90
2018-01-01T02:40:02.055Z,2.50
2018-01-01T02:41:02.077Z,2.50
2018-01-01T02:42:02.089Z,2.80
2018-01-01T02:43:02.106Z,2.70
2018-01-01T02:44:02.121Z,2.60
2018-01-01T02:45:02.141Z,2.70
2018-01-01T02:46:02.160Z,2.50
2018-01-01T02:47:02.175Z,2.20
2018-01-01T02:48:02.192Z,2.80
2018-01-01T02:49:02.209Z,2.60
2018-01-01T02:50:02.226Z,2.30
2018-01-01T02:51:02.243Z,2.60
2018-01-01T02:52:02.261Z,2.50
2018-01-01T02:53:02.277Z,2.00
2018-01-01T02:54:02.294Z,2.40
2018-01-01T02:55:02.311Z,2.20
2018-01-01T02:56:02.330Z,2.50
2018-01-01T02:57:02.347Z,2.10
2018-01-01T02:58:02.362Z,2.30
2018-01-01T02:59:02.381Z,2.20
2018-01-01T03:00:02.402Z,2.60
2018-01-01T03:01:02.415Z,2.60
2018-01-01T03:02:02.426Z,2.30
2018-01-01T03:03:02.448Z,2.20
2018-01-01T03:04:02.465Z,2.30
2018-01-01T03:05:02.482Z,2.40
2018-01-01T03:06:02.500Z,2.10
2018-01-01T03:07:02.517Z,2.60
2018-01-01T03:08:02.540Z,2.40
2018-01-01T03:09:02.552Z,2.00
2018-01-01T03:10:02.568Z,2.20
2018-01-01T03:11:02.584Z,1.90
2018-01-01T03:12:02.603Z,2.50
2018-01-01T03:13:02.621Z,2.10
2018-01-01T03:14:02.635Z,1.90
2018-01-01T03:15:02.656Z,1.90
2018-01-01T03:16:02.671Z,2.20
2018-01-01T03:17:02.688Z,2.00
2018-01-01T03:18:02.705Z,2.10
2018-01-01T03:19:02.723Z,2.00
2018-01-01T03:20:02.745Z,1.90
2018-01-01T03:21:02.755Z,1.80
2018-01-01T03:22:02.773Z,2.10
2018-01-01T03:23:02.790Z,1.90
2018-01-01T03:24:02.809Z,2.00
2018-01-01T03:25:02.825Z,2.30
2018-01-01T03:26:02.842Z,2.00
2018-01-01T03:27:02.859Z,2.00
2018-01-01T03:28:02.875Z,1.60
2018-01-01T03:29:02.894Z,2.00
2018-01-01T03:30:02.907Z,1.70
2018-01-01T03:31:02.926Z,1.80
2018-01-01T03:32:02.943Z,1.80
2018-01-01T03:33:02.960Z,1.70
2018-01-01T03:34:02.977Z,1.80
2018-01-01T03:35:02.993Z,1.70
2018-01-01T03:36:03.010Z,1.80
2018-01-01T03:37:03.028Z,1.50
2018-01-01T03:38:03.042Z,1.70
2018-01-01T03:39:03.060Z,1.70
2018-01-01T03:40:03.077Z,1.70
2018-01-01T03:41:03.096Z,1.80
2018-01-01T03:42:03.111Z,1.50
2018-01-01T03:43:03.131Z,1.50
2018-01-01T03:44:03.144Z,1.80
2018-01-01T03:45:03.162Z,1.90
2018-01-01T03:46:03.177Z,1.70
2018-01-01T03:47:03.194Z,2.20
2018-01-01T03:48:03.229Z,1.60
2018-01-01T03:49:03.229Z,1.80
2018-01-01T03:50:03.249Z,1.80
2018-01-01T03:51:03.262Z,1.50
2018-01-01T03:52:03.280Z,1.70
2018-01-01T03:53:03.298Z,1.60
2018-01-01T03:54:03.315Z,1.60
2018-01-01T03:55:03.331Z,1.80
2018-01-01T03:56:03.348Z,1.50
2018-01-01T03:57:03.367Z,1.50
2018-01-01T03:58:03.381Z,1.50
2018-01-01T03:59:03.400Z,1.80
2018-01-01T04:00:03.420Z,1.80
2018-01-01T04:01:03.434Z,1.50
2018-01-01T04:02:03.448Z,1.80
2018-01-01T04:03:03.465Z,1.60
2018-01-01T04:04:03.484Z,1.70
2018-01-01T04:05:03.501Z,1.50
2018-01-01T04:06:03.517Z,1.50
2018-01-01T04:07:03.536Z,1.50
2018-01-01T04:08:03.551Z,1.80
2018-01-01T04:09:03.569Z,1.50
2018-01-01T04:10:03.586Z,1.30
2018-01-01T04:11:03.603Z,1.60
2018-01-01T04:12:03.620Z,1.60
2018-01-01T04:13:03.635Z,1.80
2018-01-01T04:14:03.648Z,1.70
2018-01-01T04:15:03.670Z,1.50
2018-01-01T04:16:03.688Z,1.50
2018-01-01T04:17:03.704Z,1.40
2018-01-01T04:18:03.719Z,1.60
2018-01-01T04:19:03.738Z,1.70
2018-01-01T04:20:03.761Z,1.60
2018-01-01T04:21:03.769Z,1.60
2018-01-01T04:22:03.792Z,1.70
2018-01-01T04:23:03.804Z,2.00
2018-01-01T04:24:03.822Z,1.70
2018-01-01T04:25:03.844Z,1.60
2018-01-01T04:26:03.857Z,1.60
2018-01-01T04:27:03.875Z,1.40
2018-01-01T04:28:03.890Z,1.50
2018-01-01T04:29:03.907Z,1.50
2018-01-01T04:30:03.927Z,1.70
2018-01-01T04:31:03.940Z,1.50
2018-01-01T04:32:03.957Z,1.70
2018-01-01T04:33:03.973Z,1.60
2018-01-01T04:34:03.991Z,1.60
2018-01-01T04:35:04.009Z,1.60
2018-01-01T04:36:04.025Z,1.40
2018-01-01T04:37:04.090Z,1.70
2018-01-01T04:38:04.057Z,1.60
2018-01-01T04:39:04.074Z,1.60
2018-01-01T04:40:04.091Z,1.20
2018-01-01T04:41:04.110Z,1.40
2018-01-01T04:42:04.125Z,1.50
2018-01-01T04:43:04.141Z,1.40
2018-01-01T04:44:04.155Z,1.80
2018-01-01T04:45:04.176Z,1.30
2018-01-01T04:46:04.192Z,1.50
2018-01-01T04:47:04.209Z,1.30
2018-01-01T04:48:04.226Z,1.30
2018-01-01T04:49:04.243Z,1.20
2018-01-01T04:50:04.258Z,1.60
2018-01-01T04:51:04.274Z,1.40
2018-01-01T04:52:04.294Z,1.50
2018-01-01T04:53:04.311Z,1.20
2018-01-01T04:54:04.326Z,1.40
2018-01-01T04:55:04.342Z,1.80
2018-01-01T04:56:04.367Z,1.10
2018-01-01T04:57:04.375Z,1.60
2018-01-01T04:58:04.394Z,1.30
2018-01-01T04:59:04.409Z,1.50
2018-01-01T05:00:04.426Z,1.50
2018-01-01T05:01:04.442Z,1.40
2018-01-01T05:02:04.458Z,1.50
2018-01-01T05:03:04.476Z,1.40
2018-01-01T05:04:04.493Z,1.50
2018-01-01T05:05:04.511Z,1.40
2018-01-01T05:06:04.525Z,1.40
2018-01-01T05:07:04.544Z,1.40
2018-01-01T05:08:04.558Z,1.50
2018-01-01T05:09:04.574Z,1.20
2018-01-01T05:10:04.592Z,1.20
2018-01-01T05:11:04.621Z,1.80
2018-01-01T05:12:04.624Z,1.30
2018-01-01T05:13:04.642Z,1.50
2018-01-01T05:14:04.658Z,1.40
2018-01-01T05:15:04.677Z,1.30
2018-01-01T05:16:04.692Z,1.30
2018-01-01T05:17:04.707Z,1.20
2018-01-01T05:18:04.723Z,1.60
2018-01-01T05:19:04.740Z,1.20
2018-01-01T05:20:04.757Z,1.00
2018-01-01T05:21:04.774Z,1.30
2018-01-01T05:22:04.795Z,1.20
2018-01-01T05:23:04.807Z,1.10
2018-01-01T05:24:04.824Z,1.50
2018-01-01T05:25:04.843Z,1.20
2018-01-01T05:26:04.858Z,1.00
2018-01-01T05:27:04.874Z,1.00
2018-01-01T05:28:04.890Z,0.80
2018-01-01T05:29:04.907Z,1.00
2018-01-01T05:30:04.930Z,1.10
2018-01-01T05:31:04.942Z,1.10
2018-01-01T05:32:04.955Z,1.10
2018-01-01T05:33:04.974Z,0.90
2018-01-01T05:34:04.989Z,1.20
2018-01-01T05:35:05.007Z,1.00
2018-01-01T05:36:05.023Z,1.00
2018-01-01T05:37:05.041Z,0.80
2018-01-01T05:38:05.056Z,0.90
2018-01-01T05:39:05.081Z,1.10
2018-01-01T05:40:05.091Z,0.90
2018-01-01T05:41:05.108Z,1.00
2018-01-01T05:42:05.123Z,0.90
2018-01-01T05:43:05.140Z,1.00
2018-01-01T05:44:05.157Z,0.90
2018-01-01T05:45:05.172Z,1.00
2018-01-01T05:46:05.190Z,0.90
2018-01-01T05:47:05.212Z,0.90
2018-01-01T05:48:05.225Z,1.20
2018-01-01T05:49:05.241Z,1.00
2018-01-01T05:50:05.256Z,0.60
2018-01-01T05:51:05.274Z,0.90
2018-01-01T05:52:05.290Z,0.90
2018-01-01T05:53:05.307Z,0.70
2018-01-01T05:54:05.324Z,0.80
2018-01-01T05:55:05.340Z,0.70
2018-01-01T05:56:05.359Z,0.70
2018-01-01T05:57:05.376Z,0.70
2018-01-01T05:58:05.391Z,0.90
2018-01-01T05:59:05.407Z,0.80
2018-01-01T06:00:05.429Z,0.70
2018-01-01T06:01:05.441Z,0.80
2018-01-01T06:02:05.460Z,0.90
2018-01-01T06:03:05.473Z,0.80
2018-01-01T06:04:05.490Z,0.60
2018-01-01T06:05:05.508Z,0.80
2018-01-01T06:06:05.525Z,0.70
2018-01-01T06:07:05.542Z,0.60
2018-01-01T06:08:05.559Z,0.90
2018-01-01T06:09:05.575Z,0.90
2018-01-01T06:10:05.591Z,0.90
2018-01-01T06:11:05.607Z,0.90
2018-01-01T06:12:05.626Z,0.70
2018-01-01T06:13:05.643Z,0.80
2018-01-01T06:14:05.658Z,0.80
2018-01-01T06:15:05.674Z,1.00
2018-01-01T06:16:05.692Z,0.90
2018-01-01T06:17:05.707Z,1.00
2018-01-01T06:18:05.729Z,1.10
2018-01-01T06:19:05.740Z,1.00
2018-01-01T06:20:05.760Z,1.00
2018-01-01T06:21:05.776Z,1.00
2018-01-01T06:22:05.791Z,1.10
2018-01-01T06:23:05.813Z,1.10
2018-01-01T06:24:05.826Z,1.20
2018-01-01T06:25:05.840Z,1.30
2018-01-01T06:26:05.859Z,1.30
2018-01-01T06:27:05.875Z,1.50
2018-01-01T06:28:05.891Z,1.30
2018-01-01T06:29:05.909Z,1.40
2018-01-01T06:30:05.927Z,1.00
2018-01-01T06:31:05.945Z,1.20
2018-01-01T06:32:05.958Z,1.60
2018-01-01T06:33:05.976Z,1.20
2018-01-01T06:34:05.994Z,1.20
2018-01-01T06:35:06.007Z,1.40
2018-01-01T06:36:06.021Z,1.40
2018-01-01T06:37:06.042Z,1.40
2018-01-01T06:38:06.055Z,1.50
2018-01-01T06:39:06.072Z,1.40
2018-01-01T06:40:06.089Z,1.30
2018-01-01T06:41:06.106Z,1.30
2018-01-01T06:42:06.122Z,1.40
2018-01-01T06:43:06.138Z,1.50
2018-01-01T06:44:06.156Z,1.50
2018-01-01T06:45:06.172Z,1.70
2018-01-01T06:46:06.187Z,2.00
2018-01-01T06:47:06.208Z,1.50
2018-01-01T06:48:06.219Z,1.70
2018-01-01T06:49:06.238Z,1.50
2018-01-01T06:50:06.253Z,1.60
2018-01-01T06:51:06.273Z,1.50
2018-01-01T06:52:06.285Z,1.60
2018-01-01T06:53:06.302Z,1.60
2018-01-01T06:54:06.317Z,1.70
2018-01-01T06:55:06.333Z,1.80
2018-01-01T06:56:06.351Z,1.80
2018-01-01T06:57:06.368Z,1.80
2018-01-01T06:58:06.384Z,1.50
2018-01-01T06:59:06.399Z,2.00
2018-01-01T07:00:06.418Z,1.90
2018-01-01T07:01:06.433Z,2.00
2018-01-01T07:02:06.448Z,1.90
2018-01-01T07:03:06.468Z,1.90
2018-01-01T07:04:06.482Z,2.00
2018-01-01T07:05:06.496Z,2.20
2018-01-01T07:06:06.514Z,1.80
2018-01-01T07:07:06.529Z,1.80
2018-01-01T07:08:06.546Z,1.80
2018-01-01T07:09:06.562Z,1.60
2018-01-01T07:10:06.579Z,1.70
2018-01-01T07:11:06.594Z,1.70
2018-01-01T07:12:06.613Z,1.50
2018-01-01T07:13:06.628Z,1.40
2018-01-01T07:14:06.642Z,1.90
2018-01-01T07:15:06.662Z,1.60
2018-01-01T07:16:06.675Z,2.00
2018-01-01T07:17:06.691Z,1.70
2018-01-01T07:18:06.709Z,2.10
2018-01-01T07:19:06.726Z,2.10
2018-01-01T07:20:06.740Z,1.60
2018-01-01T07:21:06.765Z,2.00
2018-01-01T07:22:06.794Z,1.60
2018-01-01T07:23:06.795Z,1.70
2018-01-01T07:24:06.805Z,2.00
2018-01-01T07:25:06.822Z,1.70
2018-01-01T07:26:06.837Z,1.80
2018-01-01T07:27:06.853Z,1.70
2018-01-01T07:28:06.871Z,1.60
2018-01-01T07:29:06.884Z,1.50
2018-01-01T07:30:06.902Z,1.70
2018-01-01T07:31:06.918Z,1.90
2018-01-01T07:32:06.936Z,1.60
2018-01-01T07:33:06.949Z,1.70
2018-01-01T07:34:06.966Z,1.70
2018-01-01T07:35:06.983Z,1.70
2018-01-01T07:36:07.001Z,1.80
2018-01-01T07:37:07.017Z,1.40
2018-01-01T07:38:07.028Z,1.90
2018-01-01T07:39:07.077Z,2.10
2018-01-01T07:40:07.066Z,1.40
2018-01-01T07:41:07.081Z,1.80
2018-01-01T07:42:07.097Z,1.70
2018-01-01T07:43:07.111Z,1.60
2018-01-01T07:44:07.129Z,1.70
2018-01-01T07:45:07.146Z,1.50
2018-01-01T07:46:07.162Z,1.90
2018-01-01T07:47:07.182Z,1.50
2018-01-01T07:48:07.194Z,1.70
2018-01-01T07:49:07.209Z,1.40
2018-01-01T07:50:07.227Z,1.90
2018-01-01T07:51:07.241Z,1.90
2018-01-01T07:52:07.265Z,1.50
2018-01-01T07:53:07.281Z,1.90
2018-01-01T07:54:07.292Z,1.60
2018-01-01T07:55:07.327Z,1.70
2018-01-01T07:56:07.326Z,1.70
2018-01-01T07:57:07.343Z,1.60
2018-01-01T07:58:07.366Z,1.90
2018-01-01T07:59:07.374Z,1.50
2018-01-01T08:00:07.392Z,1.50
2018-01-01T08:01:07.408Z,2.20
2018-01-01T08:02:07.423Z,1.70
2018-01-01T08:03:07.442Z,1.60
2018-01-01T08:04:07.458Z,1.70
2018-01-01T08:05:07.474Z,1.60
2018-01-01T08:06:07.488Z,1.60
2018-01-01T08:07:07.506Z,1.70
2018-01-01T08:08:07.523Z,1.80
2018-01-01T08:09:07.539Z,1.60
2018-01-01T08:10:07.555Z,1.90
2018-01-01T08:11:07.571Z,1.90
2018-01-01T08:12:07.584Z,1.70
2018-01-01T08:13:07.607Z,1.90
2018-01-01T08:14:07.621Z,1.70
2018-01-01T08:15:07.640Z,1.50
2018-01-01T08:16:07.655Z,1.30
2018-01-01T08:17:07.672Z,1.30
2018-01-01T08:18:07.689Z,1.40
2018-01-01T08:19:07.705Z,1.80
2018-01-01T08:20:07.722Z,1.20
2018-01-01T08:21:07.738Z,1.40
2018-01-01T08:22:07.755Z,1.20
2018-01-01T08:23:07.772Z,1.10
2018-01-01T08:24:07.788Z,0.90
2018-01-01T08:25:07.807Z,0.90
2018-01-01T08:26:07.821Z,0.90
2018-01-01T08:27:07.838Z,1.00
2018-01-01T08:28:07.857Z,0.80
2018-01-01T08:29:07.872Z,0.90
2018-01-01T08:30:07.888Z,0.80
2018-01-01T08:31:07.904Z,0.80
2018-01-01T08:32:07.921Z,0.80
2018-01-01T08:33:07.932Z,1.00
2018-01-01T08:34:07.954Z,0.80
2018-01-01T08:35:07.974Z,0.80
2018-01-01T08:36:07.989Z,0.60
2018-01-01T08:37:08.005Z,0.80
2018-01-01T08:38:08.021Z,0.90
2018-01-01T08:39:08.036Z,0.90
2018-01-01T08:40:08.056Z,0.90
2018-01-01T08:41:08.070Z,0.90
2018-01-01T08:42:08.086Z,0.70
2018-01-01T08:43:08.098Z,0.90
2018-01-01T08:44:08.121Z,0.80
2018-01-01T08:45:08.137Z,0.90
2018-01-01T08:46:08.152Z,0.70
2018-01-01T08:47:08.170Z,0.70
2018-01-01T08:48:08.188Z,1.00
2018-01-01T08:49:08.204Z,0.90
2018-01-01T08:50:08.219Z,0.80
2018-01-01T08:51:08.237Z,1.10
2018-01-01T08:52:08.252Z,0.90
2018-01-01T08:53:08.268Z,1.10
2018-01-01T08:54:08.282Z,0.90
2018-01-01T08:55:08.302Z,1.10
2018-01-01T08:56:08.320Z,1.00
2018-01-01T08:57:08.340Z,1.10
2018-01-01T08:58:08.352Z,1.00
2018-01-01T08:59:08.372Z,1.10
2018-01-01T09:00:08.386Z,1.10
2018-01-01T09:01:08.404Z,1.40
2018-01-01T09:02:08.419Z,1.30
2018-01-01T09:03:08.438Z,1.40
2018-01-01T09:04:08.452Z,1.50
2018-01-01T09:05:08.470Z,1.50
2018-01-01T09:06:08.486Z,1.40
2018-01-01T09:07:08.512Z,1.30
2018-01-01T09:08:08.519Z,1.20
2018-01-01T09:09:08.536Z,1.30
2018-01-01T09:10:08.554Z,1.40
2018-01-01T09:11:08.566Z,1.30
2018-01-01T09:12:08.588Z,1.20
2018-01-01T09:13:08.605Z,1.20
2018-01-01T09:14:08.620Z,1.30
2018-01-01T09:15:08.641Z,1.20
2018-01-01T09:16:08.653Z,1.40
2018-01-01T09:17:08.671Z,1.40
2018-01-01T09:18:08.694Z,1.40
2018-01-01T09:19:08.706Z,1.20
2018-01-01T09:20:08.721Z,1.60
2018-01-01T09:21:08.740Z,1.30
2018-01-01T09:22:08.754Z,1.50
2018-01-01T09:23:08.772Z,1.60
2018-01-01T09:24:08.793Z,1.70
2018-01-01T09:25:08.809Z,1.60
2018-01-01T09:26:08.823Z,1.40
2018-01-01T09:27:08.840Z,1.60
2018-01-01T09:28:08.857Z,1.50
2018-01-01T09:29:08.875Z,1.50
2018-01-01T09:30:08.891Z,1.80
2018-01-01T09:31:08.908Z,1.70
2018-01-01T09:32:08.924Z,1.60
2018-01-01T09:33:08.942Z,1.60
2018-01-01T09:34:08.960Z,1.50
2018-01-01T09:35:08.975Z,1.50
2018-01-01T09:36:08.996Z,1.80
2018-01-01T09:37:09.010Z,2.10
2018-01-01T09:38:09.027Z,1.70
2018-01-01T09:39:09.045Z,1.90
2018-01-01T09:40:09.061Z,1.70
2018-01-01T09:41:09.081Z,1.70
2018-01-01T09:42:09.095Z,1.60
2018-01-01T09:43:09.113Z,1.90
2018-01-01T09:44:09.131Z,1.70
2018-01-01T09:45:09.146Z,1.90
2018-01-01T09:46:09.165Z,2.10
2018-01-01T09:47:09.183Z,1.70
2018-01-01T09:48:09.202Z,1.60
2018-01-01T09:49:09.216Z,1.70
2018-01-01T09:50:09.237Z,1.80
2018-01-01T09:51:09.253Z,1.90
2018-01-01T09:52:09.270Z,2.10
2018-01-01T09:53:09.286Z,2.10
2018-01-01T09:54:09.305Z,2.30
2018-01-01T09:55:09.320Z,2.10
2018-01-01T09:56:09.338Z,1.70
2018-01-01T09:57:09.356Z,1.90
2018-01-01T09:58:09.373Z,1.70
2018-01-01T09:59:09.395Z,1.80
2018-01-01T10:00:09.410Z,2.00
2018-01-01T10:01:09.424Z,1.70
2018-01-01T10:02:09.439Z,1.80
2018-01-01T10:03:09.459Z,1.90
2018-01-01T10:04:09.476Z,2.20
2018-01-01T10:05:09.499Z,1.80
2018-01-01T10:06:09.514Z,1.90
2018-01-01T10:07:09.527Z,1.70
2018-01-01T10:08:09.549Z,1.80
2018-01-01T10:09:09.563Z,1.80
2018-01-01T10:10:09.581Z,2.10
2018-01-01T10:11:09.597Z,2.10
2018-01-01T10:12:09.616Z,1.80
2018-01-01T10:13:09.634Z,2.20
2018-01-01T10:14:09.652Z,2.10
2018-01-01T10:15:09.669Z,2.10
2018-01-01T10:16:09.687Z,2.10
2018-01-01T10:17:09.705Z,1.90
2018-01-01T10:18:09.724Z,1.80
2018-01-01T10:19:09.739Z,2.10
2018-01-01T10:20:09.758Z,2.40
2018-01-01T10:21:09.778Z,2.00
2018-01-01T10:22:09.794Z,2.20
2018-01-01T10:23:09.812Z,2.60
2018-01-01T10:24:09.830Z,2.20
2018-01-01T10:25:09.853Z,2.10
2018-01-01T10:26:09.866Z,2.40
2018-01-01T10:27:09.884Z,2.40
2018-01-01T10:28:09.901Z,2.10
2018-01-01T10:29:09.919Z,2.20
2018-01-01T10:30:09.938Z,2.50
2018-01-01T10:31:09.955Z,2.50
2018-01-01T10:32:09.976Z,2.60
2018-01-01T10:33:09.995Z,2.30
2018-01-01T10:34:10.008Z,2.20
2018-01-01T10:35:10.028Z,2.10
2018-01-01T10:36:10.047Z,2.80
2018-01-01T10:37:10.065Z,2.30
2018-01-01T10:38:10.084Z,2.60
2018-01-01T10:39:10.099Z,2.40
2018-01-01T10:40:10.118Z,2.40
2018-01-01T10:41:10.136Z,2.70
2018-01-01T10:42:10.152Z,2.60
2018-01-01T10:43:10.172Z,2.30
2018-01-01T10:44:10.189Z,2.80
2018-01-01T10:45:10.210Z,2.40
2018-01-01T10:46:10.225Z,2.50
2018-01-01T10:47:10.244Z,2.80
2018-01-01T10:48:10.258Z,2.80
2018-01-01T10:49:10.280Z,2.60
2018-01-01T10:50:10.296Z,2.40
2018-01-01T10:51:10.316Z,2.90
2018-01-01T10:52:10.334Z,2.40
2018-01-01T10:53:10.354Z,2.50
2018-01-01T10:54:10.372Z,3.10
2018-01-01T10:55:10.389Z,2.50
2018-01-01T10:56:10.408Z,2.70
2018-01-01T10:57:10.427Z,3.00
2018-01-01T10:58:10.442Z,2.50
2018-01-01T10:59:10.463Z,2.60
2018-01-01T11:00:10.505Z,3.00
2018-01-01T11:01:10.499Z,2.50
2018-01-01T11:02:10.517Z,2.70
2018-01-01T11:03:10.535Z,3.20
2018-01-01T11:04:10.554Z,2.40
2018-01-01T11:05:10.571Z,2.90
2018-01-01T11:06:10.589Z,2.50
2018-01-01T11:07:10.612Z,2.40
2018-01-01T11:08:10.626Z,2.70
2018-01-01T11:09:10.646Z,2.80
2018-01-01T11:10:10.663Z,2.60
2018-01-01T11:11:10.679Z,2.80
2018-01-01T11:12:10.698Z,2.50
2018-01-01T11:13:10.712Z,3.00
2018-01-01T11:14:10.739Z,2.60
2018-01-01T11:15:10.754Z,2.90
2018-01-01T11:16:10.776Z,2.90
2018-01-01T11:17:10.793Z,2.50
2018-01-01T11:18:10.808Z,2.70
2018-01-01T11:19:10.834Z,2.70
2018-01-01T11:20:10.846Z,2.60
2018-01-01T11:21:10.864Z,2.60
2018-01-01T11:22:10.878Z,2.50
2018-01-01T11:23:10.899Z,2.70
2018-01-01T11:24:10.918Z,2.80
2018-01-01T11:25:10.938Z,2.50
2018-01-01T11:26:10.957Z,2.60
2018-01-01T11:27:10.978Z,3.00
2018-01-01T11:28:10.989Z,2.60
2018-01-01T11:29:11.006Z,2.90
2018-01-01T11:30:11.025Z,2.60
2018-01-01T11:31:11.040Z,2.70
2018-01-01T11:32:11.064Z,2.80
2018-01-01T11:33:11.084Z,2.70
2018-01-01T11:34:11.101Z,2.90
2018-01-01T11:35:11.118Z,2.80
2018-01-01T11:36:11.137Z,2.40
2018-01-01T11:37:11.155Z,3.20
2018-01-01T11:38:11.171Z,3.20
2018-01-01T11:39:11.187Z,3.10
2018-01-01T11:40:11.208Z,3.00
2018-01-01T11:41:11.234Z,2.80
2018-01-01T11:42:11.248Z,2.90
2018-01-01T11:43:11.264Z,3.10
2018-01-01T11:44:11.282Z,2.60
2018-01-01T11:45:11.302Z,3.10
2018-01-01T11:46:11.321Z,3.60
2018-01-01T11:47:11.341Z,2.80
2018-01-01T11:48:11.355Z,3.00
2018-01-01T11:49:11.374Z,2.90
2018-01-01T11:50:11.390Z,3.00
2018-01-01T11:51:11.413Z,3.00
2018-01-01T11:52:11.430Z,3.00
2018-01-01T11:53:11.448Z,3.40
2018-01-01T11:54:11.466Z,3.20
2018-01-01T11:55:11.487Z,3.30
2018-01-01T11:56:11.504Z,3.10
2018-01-01T11:57:11.523Z,3.10
2018-01-01T11:58:11.539Z,3.20
2018-01-01T11:59:11.558Z,2.90
2018-01-01T12:00:11.580Z,3.10
2018-01-01T12:01:11.596Z,3.10
2018-01-01T12:02:11.618Z,3.10
2018-01-01T12:03:11.633Z,3.10
2018-01-01T12:04:11.651Z,3.20
2018-01-01T12:05:11.672Z,3.30
2018-01-01T12:06:11.690Z,3.10
2018-01-01T12:07:11.713Z,3.20
2018-01-01T12:08:11.728Z,3.40
2018-01-01T12:09:11.747Z,3.00
2018-01-01T12:10:11.764Z,3.40
2018-01-01T12:11:11.793Z,3.40
2018-01-01T12:12:11.800Z,3.50
2018-01-01T12:13:11.821Z,3.30
2018-01-01T12:14:11.840Z,3.50
2018-01-01T12:15:11.864Z,3.10
2018-01-01T12:16:11.878Z,3.10
2018-01-01T12:17:11.896Z,4.00
2018-01-01T12:18:11.913Z,3.40
2018-01-01T12:19:11.934Z,3.40
2018-01-01T12:20:11.951Z,3.60
2018-01-01T12:21:11.965Z,3.40
2018-01-01T12:22:11.988Z,3.40
2018-01-01T12:23:12.007Z,3.70
2018-01-01T12:24:12.026Z,3.70
2018-01-01T12:25:12.045Z,3.70
2018-01-01T12:26:12.062Z,3.60
2018-01-01T12:27:12.082Z,3.80
2018-01-01T12:28:12.108Z,3.40
2018-01-01T12:29:12.122Z,3.80
2018-01-01T12:30:12.142Z,3.70
2018-01-01T12:31:12.151Z,3.50
2018-01-01T12:32:12.175Z,3.10
2018-01-01T12:33:12.192Z,3.80
2018-01-01T12:34:12.220Z,4.00
2018-01-01T12:35:12.232Z,3.70
2018-01-01T12:36:12.251Z,3.20
2018-01-01T12:37:12.271Z,4.10
2018-01-01T12:38:12.295Z,3.90
2018-01-01T12:39:12.312Z,3.70
2018-01-01T12:40:12.327Z,3.40
2018-01-01T12:41:12.346Z,3.60
2018-01-01T12:42:12.411Z,3.30
2018-01-01T12:43:12.390Z,3.60
2018-01-01T12:44:12.403Z,3.40
2018-01-01T12:45:12.422Z,3.80
2018-01-01T12:46:12.440Z,3.70
2018-01-01T12:47:12.458Z,3.40
2018-01-01T12:48:12.477Z,4.00
2018-01-01T12:49:12.494Z,3.40
2018-01-01T12:50:12.514Z,3.90
2018-01-01T12:51:12.535Z,3.60
2018-01-01T12:52:12.553Z,3.80
2018-01-01T12:53:12.571Z,3.70
2018-01-01T12:54:12.582Z,4.20
2018-01-01T12:55:12.609Z,3.70
2018-01-01T12:56:12.627Z,3.50
2018-01-01T12:57:12.647Z,3.30
2018-01-01T12:58:12.670Z,4.20
2018-01-01T12:59:12.683Z,3.70
2018-01-01T13:00:12.704Z,4.30
2018-01-01T13:01:12.722Z,4.00
2018-01-01T13:02:12.739Z,3.70
2018-01-01T13:03:12.758Z,3.70
2018-01-01T13:04:12.777Z,3.70
2018-01-01T13:05:12.796Z,3.70
2018-01-01T13:06:12.814Z,3.80
2018-01-01T13:07:12.832Z,4.00
2018-01-01T13:08:12.851Z,3.80
2018-01-01T13:09:12.874Z,3.90
2018-01-01T13:10:12.888Z,4.00
2018-01-01T13:11:12.907Z,4.00
2018-01-01T13:12:12.927Z,3.30
2018-01-01T13:13:12.945Z,3.40
2018-01-01T13:14:12.964Z,4.00
2018-01-01T13:15:12.978Z,3.70
2018-01-01T13:16:13.002Z,3.80
2018-01-01T13:17:13.020Z,3.70
2018-01-01T13:18:13.035Z,3.70